sensor_id;sensor_type;location;lat;lon;timestamp;pressure;altitude;pressure_sealevel;temperature;humidity
50123;BME280;36021;48.670;6.184;2022-10-16T00:00:32;98831.19;;;17.10;100.00
50123;BME280;36021;48.670;6.184;2022-10-16T00:02:58;98835.81;;;17.06;100.00
50123;BME280;36021;48.670;6.184;2022-10-16T00:05:23;98838.28;;;17.07;100.00
50123;BME280;36021;48.670;6.184;2022-10-16T00:07:49;98826.50;;;17.02;100.00
50123;BME280;36021;48.670;6.184;2022-10-16T00:10:15;98839.28;;;17.03;100.00
50123;BME280;36021;48.670;6.184;2022-10-16T00:12:40;98837.44;;;17.07;100.00
50123;BME280;36021;48.670;6.184;2022-10-16T00:15:06;98834.44;;;17.12;100.00
50123;BME280;36021;48.670;6.184;2022-10-16T00:17:32;98827.94;;;17.08;100.00
50123;BME280;36021;48.670;6.184;2022-10-16T00:19:57;98824.66;;;17.06;100.00
50123;BME280;36021;48.670;6.184;2022-10-16T00:22:43;98816.13;;;17.11;100.00
50123;BME280;36021;48.670;6.184;2022-10-16T00:25:09;98811.69;;;17.10;100.00
50123;BME280;36021;48.670;6.184;2022-10-16T00:27:35;98813.91;;;17.04;100.00
50123;BME280;36021;48.670;6.184;2022-10-16T00:30:00;98819.91;;;17.06;100.00
50123;BME280;36021;48.670;6.184;2022-10-16T00:32:26;98820.59;;;17.03;100.00
50123;BME280;36021;48.670;6.184;2022-10-16T00:34:51;98822.38;;;17.08;100.00
50123;BME280;36021;48.670;6.184;2022-10-16T00:37:20;98829.56;;;17.09;100.00
50123;BME280;36021;48.670;6.184;2022-10-16T00:39:45;98822.84;;;17.10;100.00
50123;BME280;36021;48.670;6.184;2022-10-16T00:42:14;98819.09;;;17.06;100.00
50123;BME280;36021;48.670;6.184;2022-10-16T00:44:42;98814.44;;;16.98;100.00
50123;BME280;36021;48.670;6.184;2022-10-16T00:47:11;98808.94;;;16.89;100.00
50123;BME280;36021;48.670;6.184;2022-10-16T00:49:38;98819.38;;;16.92;100.00
50123;BME280;36021;48.670;6.184;2022-10-16T00:52:03;98822.81;;;16.98;100.00
50123;BME280;36021;48.670;6.184;2022-10-16T00:54:30;98821.84;;;16.94;100.00
50123;BME280;36021;48.670;6.184;2022-10-16T00:56:58;98824.78;;;16.77;100.00
50123;BME280;36021;48.670;6.184;2022-10-16T00:59:30;98829.06;;;16.74;100.00
50123;BME280;36021;48.670;6.184;2022-10-16T01:01:56;98821.84;;;16.73;100.00
50123;BME280;36021;48.670;6.184;2022-10-16T01:04:23;98825.47;;;16.74;100.00
50123;BME280;36021;48.670;6.184;2022-10-16T01:07:08;98833.81;;;16.74;100.00
50123;BME280;36021;48.670;6.184;2022-10-16T01:12:06;98838.88;;;16.51;100.00
50123;BME280;36021;48.670;6.184;2022-10-16T01:14:44;98833.94;;;16.56;100.00
50123;BME280;36021;48.670;6.184;2022-10-16T01:17:31;98837.47;;;16.65;100.00
50123;BME280;36021;48.670;6.184;2022-10-16T01:25:24;98835.63;;;16.70;100.00
50123;BME280;36021;48.670;6.184;2022-10-16T01:27:54;98839.84;;;16.76;100.00
50123;BME280;36021;48.670;6.184;2022-10-16T01:30:26;98857.03;;;16.78;100.00
50123;BME280;36021;48.670;6.184;2022-10-16T01:33:14;98860.41;;;16.83;100.00
50123;BME280;36021;48.670;6.184;2022-10-16T01:35:38;98861.00;;;16.89;100.00
50123;BME280;36021;48.670;6.184;2022-10-16T01:38:12;98863.00;;;16.88;100.00
50123;BME280;36021;48.670;6.184;2022-10-16T01:40:41;98867.91;;;16.91;100.00
50123;BME280;36021;48.670;6.184;2022-10-16T01:43:13;98870.31;;;16.93;100.00
50123;BME280;36021;48.670;6.184;2022-10-16T01:45:40;98882.13;;;16.90;100.00
50123;BME280;36021;48.670;6.184;2022-10-16T01:48:06;98871.78;;;16.78;100.00
50123;BME280;36021;48.670;6.184;2022-10-16T01:50:35;98876.25;;;16.71;100.00
50123;BME280;36021;48.670;6.184;2022-10-16T01:53:02;98876.25;;;16.71;100.00
50123;BME280;36021;48.670;6.184;2022-10-16T01:55:32;98880.44;;;16.77;100.00
50123;BME280;36021;48.670;6.184;2022-10-16T01:58:01;98881.41;;;16.81;100.00
50123;BME280;36021;48.670;6.184;2022-10-16T02:00:28;98874.00;;;16.85;100.00
50123;BME280;36021;48.670;6.184;2022-10-16T02:02:54;98871.81;;;16.90;100.00
50123;BME280;36021;48.670;6.184;2022-10-16T02:05:32;98868.56;;;16.88;100.00
50123;BME280;36021;48.670;6.184;2022-10-16T02:07:59;98874.28;;;16.71;100.00
50123;BME280;36021;48.670;6.184;2022-10-16T02:10:25;98876.31;;;16.62;100.00
50123;BME280;36021;48.670;6.184;2022-10-16T02:12:55;98875.09;;;16.72;100.00
50123;BME280;36021;48.670;6.184;2022-10-16T02:15:21;98875.50;;;16.61;100.00
50123;BME280;36021;48.670;6.184;2022-10-16T02:17:47;98875.50;;;16.61;100.00
50123;BME280;36021;48.670;6.184;2022-10-16T02:20:12;98879.41;;;16.60;100.00
50123;BME280;36021;48.670;6.184;2022-10-16T02:22:39;98882.13;;;16.69;100.00
50123;BME280;36021;48.670;6.184;2022-10-16T02:25:07;98879.97;;;16.75;100.00
50123;BME280;36021;48.670;6.184;2022-10-16T02:27:35;98873.00;;;16.69;100.00
50123;BME280;36021;48.670;6.184;2022-10-16T02:30:46;98879.41;;;16.60;100.00
50123;BME280;36021;48.670;6.184;2022-10-16T02:32:52;98875.97;;;16.63;100.00
50123;BME280;36021;48.670;6.184;2022-10-16T02:35:19;98876.69;;;16.73;100.00
50123;BME280;36021;48.670;6.184;2022-10-16T02:37:46;98879.63;;;16.76;100.00
50123;BME280;36021;48.670;6.184;2022-10-16T02:40:12;98871.22;;;16.85;100.00
50123;BME280;36021;48.670;6.184;2022-10-16T02:42:38;98866.44;;;16.85;100.00
50123;BME280;36021;48.670;6.184;2022-10-16T02:45:08;98865.56;;;16.93;100.00
50123;BME280;36021;48.670;6.184;2022-10-16T02:47:34;98859.19;;;16.93;100.00
50123;BME280;36021;48.670;6.184;2022-10-16T02:49:59;98863.94;;;16.92;100.00
50123;BME280;36021;48.670;6.184;2022-10-16T02:52:25;98866.41;;;16.94;100.00
50123;BME280;36021;48.670;6.184;2022-10-16T02:54:51;98866.25;;;16.90;100.00
50123;BME280;36021;48.670;6.184;2022-10-16T02:57:18;98858.22;;;16.89;100.00
50123;BME280;36021;48.670;6.184;2022-10-16T02:59:44;98851.66;;;16.73;100.00
50123;BME280;36021;48.670;6.184;2022-10-16T03:02:10;98869.31;;;16.77;100.00
50123;BME280;36021;48.670;6.184;2022-10-16T03:04:35;98869.44;;;16.80;100.00
50123;BME280;36021;48.670;6.184;2022-10-16T03:07:01;98867.63;;;16.84;100.00
50123;BME280;36021;48.670;6.184;2022-10-16T03:09:27;98867.06;;;16.91;100.00
50123;BME280;36021;48.670;6.184;2022-10-16T03:11:53;98864.63;;;16.89;100.00
50123;BME280;36021;48.670;6.184;2022-10-16T03:14:19;98860.28;;;16.80;100.00
50123;BME280;36021;48.670;6.184;2022-10-16T03:16:44;98852.34;;;16.70;100.00
50123;BME280;36021;48.670;6.184;2022-10-16T03:19:10;98859.47;;;16.58;100.00
50123;BME280;36021;48.670;6.184;2022-10-16T03:21:36;98854.44;;;16.73;100.00
50123;BME280;36021;48.670;6.184;2022-10-16T03:24:01;98860.00;;;16.73;100.00
50123;BME280;36021;48.670;6.184;2022-10-16T03:26:27;98858.13;;;16.64;100.00
50123;BME280;36021;48.670;6.184;2022-10-16T03:28:52;98851.59;;;16.60;100.00
50123;BME280;36021;48.670;6.184;2022-10-16T03:31:18;98847.16;;;16.59;100.00
50123;BME280;36021;48.670;6.184;2022-10-16T03:33:43;98848.81;;;16.60;100.00
50123;BME280;36021;48.670;6.184;2022-10-16T03:36:09;98857.75;;;16.66;100.00
50123;BME280;36021;48.670;6.184;2022-10-16T03:38:34;98855.19;;;16.61;100.00
50123;BME280;36021;48.670;6.184;2022-10-16T03:41:00;98859.72;;;16.65;100.00
50123;BME280;36021;48.670;6.184;2022-10-16T03:43:25;98861.97;;;16.72;100.00
50123;BME280;36021;48.670;6.184;2022-10-16T03:45:51;98864.16;;;16.66;100.00
50123;BME280;36021;48.670;6.184;2022-10-16T03:48:17;98863.13;;;16.71;100.00
50123;BME280;36021;48.670;6.184;2022-10-16T03:50:42;98867.28;;;16.65;100.00
50123;BME280;36021;48.670;6.184;2022-10-16T03:53:08;98863.88;;;16.59;100.00
50123;BME280;36021;48.670;6.184;2022-10-16T03:55:35;98875.97;;;16.63;100.00
50123;BME280;36021;48.670;6.184;2022-10-16T03:58:02;98871.28;;;16.55;100.00
50123;BME280;36021;48.670;6.184;2022-10-16T04:00:28;98865.19;;;16.53;100.00
50123;BME280;36021;48.670;6.184;2022-10-16T04:02:53;98868.31;;;16.52;100.00
50123;BME280;36021;48.670;6.184;2022-10-16T04:05:19;98877.34;;;16.49;100.00
50123;BME280;36021;48.670;6.184;2022-10-16T04:07:44;98875.03;;;16.51;100.00
50123;BME280;36021;48.670;6.184;2022-10-16T04:10:10;98869.63;;;16.54;100.00
50123;BME280;36021;48.670;6.184;2022-10-16T04:12:36;98873.41;;;16.50;100.00
50123;BME280;36021;48.670;6.184;2022-10-16T04:15:01;98866.00;;;16.54;100.00
50123;BME280;36021;48.670;6.184;2022-10-16T04:17:27;98868.31;;;16.52;100.00
50123;BME280;36021;48.670;6.184;2022-10-16T04:19:53;98877.34;;;16.49;100.00
50123;BME280;36021;48.670;6.184;2022-10-16T04:22:21;98870.16;;;16.48;100.00
50123;BME280;36021;48.670;6.184;2022-10-16T04:24:46;98864.16;;;16.37;100.00
50123;BME280;36021;48.670;6.184;2022-10-16T04:27:12;98856.00;;;16.32;100.00
50123;BME280;36021;48.670;6.184;2022-10-16T04:29:37;98856.19;;;16.27;100.00
50123;BME280;36021;48.670;6.184;2022-10-16T04:32:03;98855.06;;;16.28;100.00
50123;BME280;36021;48.670;6.184;2022-10-16T04:34:28;98862.25;;;16.29;100.00
50123;BME280;36021;48.670;6.184;2022-10-16T04:36:54;98871.88;;;16.32;100.00
50123;BME280;36021;48.670;6.184;2022-10-16T04:39:20;98875.50;;;16.32;100.00
50123;BME280;36021;48.670;6.184;2022-10-16T04:41:45;98880.38;;;16.35;100.00
50123;BME280;36021;48.670;6.184;2022-10-16T04:44:11;98874.31;;;16.33;100.00
50123;BME280;36021;48.670;6.184;2022-10-16T04:46:36;98864.16;;;16.37;100.00
50123;BME280;36021;48.670;6.184;2022-10-16T04:49:02;98852.06;;;16.33;100.00
50123;BME280;36021;48.670;6.184;2022-10-16T04:51:27;98852.06;;;16.33;100.00
50123;BME280;36021;48.670;6.184;2022-10-16T04:53:53;98858.78;;;16.32;100.00
50123;BME280;36021;48.670;6.184;2022-10-16T04:56:19;98867.66;;;16.26;100.00
50123;BME280;36021;48.670;6.184;2022-10-16T04:58:46;98873.16;;;16.34;100.00
50123;BME280;36021;48.670;6.184;2022-10-16T05:01:11;98875.94;;;16.34;100.00
50123;BME280;36021;48.670;6.184;2022-10-16T05:03:37;98867.41;;;16.39;100.00
50123;BME280;36021;48.670;6.184;2022-10-16T05:06:04;98862.19;;;16.38;100.00
50123;BME280;36021;48.670;6.184;2022-10-16T05:08:30;98870.16;;;16.19;100.00
50123;BME280;36021;48.670;6.184;2022-10-16T05:10:55;98874.59;;;16.11;100.00
50123;BME280;36021;48.670;6.184;2022-10-16T05:13:21;98884.28;;;16.05;100.00
50123;BME280;36021;48.670;6.184;2022-10-16T05:15:47;98879.19;;;16.07;100.00
50123;BME280;36021;48.670;6.184;2022-10-16T05:18:13;98874.59;;;16.11;100.00
50123;BME280;36021;48.670;6.184;2022-10-16T05:20:38;98873.75;;;16.19;100.00
50123;BME280;36021;48.670;6.184;2022-10-16T05:23:04;98870.78;;;16.24;100.00
50123;BME280;36021;48.670;6.184;2022-10-16T05:25:29;98873.75;;;16.19;100.00
50123;BME280;36021;48.670;6.184;2022-10-16T05:27:55;98882.88;;;16.28;100.00
50123;BME280;36021;48.670;6.184;2022-10-16T05:30:20;98896.91;;;16.32;100.00
50123;BME280;36021;48.670;6.184;2022-10-16T05:32:50;98907.59;;;16.21;100.00
50123;BME280;36021;48.670;6.184;2022-10-16T05:35:16;98907.53;;;16.30;100.00
50123;BME280;36021;48.670;6.184;2022-10-16T05:37:41;98915.88;;;16.38;100.00
50123;BME280;36021;48.670;6.184;2022-10-16T05:40:07;98916.16;;;16.45;100.00
50123;BME280;36021;48.670;6.184;2022-10-16T05:42:33;98916.78;;;16.51;100.00
50123;BME280;36021;48.670;6.184;2022-10-16T05:44:59;98906.09;;;16.32;100.00
50123;BME280;36021;48.670;6.184;2022-10-16T05:47:24;98920.69;;;16.21;100.00
50123;BME280;36021;48.670;6.184;2022-10-16T05:49:50;98916.63;;;16.18;100.00
50123;BME280;36021;48.670;6.184;2022-10-16T05:52:15;98923.09;;;16.31;100.00
50123;BME280;36021;48.670;6.184;2022-10-16T05:54:42;98924.59;;;16.28;100.00
50123;BME280;36021;48.670;6.184;2022-10-16T05:57:10;98927.38;;;16.28;100.00
50123;BME280;36021;48.670;6.184;2022-10-16T05:59:36;98928.03;;;16.25;100.00
50123;BME280;36021;48.670;6.184;2022-10-16T06:02:01;98930.53;;;16.18;100.00
50123;BME280;36021;48.670;6.184;2022-10-16T06:04:27;98927.78;;;16.09;100.00
50123;BME280;36021;48.670;6.184;2022-10-16T06:06:52;98933.97;;;16.15;100.00
50123;BME280;36021;48.670;6.184;2022-10-16T06:09:18;98939.84;;;16.22;100.00
50123;BME280;36021;48.670;6.184;2022-10-16T06:11:44;98936.56;;;16.20;100.00
50123;BME280;36021;48.670;6.184;2022-10-16T06:14:09;98945.19;;;16.27;100.00
50123;BME280;36021;48.670;6.184;2022-10-16T06:16:35;98937.81;;;16.31;100.00
50123;BME280;36021;48.670;6.184;2022-10-16T06:19:01;98938.63;;;16.32;100.00
50123;BME280;36021;48.670;6.184;2022-10-16T06:21:29;98941.94;;;16.25;100.00
50123;BME280;36021;48.670;6.184;2022-10-16T06:23:55;98945.03;;;16.32;100.00
50123;BME280;36021;48.670;6.184;2022-10-16T06:26:22;98950.38;;;16.37;100.00
50123;BME280;36021;48.670;6.184;2022-10-16T06:28:48;98946.78;;;16.37;100.00
50123;BME280;36021;48.670;6.184;2022-10-16T06:31:14;98946.47;;;16.38;100.00
50123;BME280;36021;48.670;6.184;2022-10-16T06:33:40;98946.94;;;16.40;100.00
50123;BME280;36021;48.670;6.184;2022-10-16T06:36:06;98947.59;;;16.37;100.00
50123;BME280;36021;48.670;6.184;2022-10-16T06:38:34;98945.66;;;16.38;100.00
50123;BME280;36021;48.670;6.184;2022-10-16T06:40:59;98961.22;;;16.30;100.00
50123;BME280;36021;48.670;6.184;2022-10-16T06:43:25;98955.34;;;16.23;100.00
50123;BME280;36021;48.670;6.184;2022-10-16T06:45:54;98967.66;;;16.22;100.00
50123;BME280;36021;48.670;6.184;2022-10-16T06:48:20;98974.66;;;16.28;100.00
50123;BME280;36021;48.670;6.184;2022-10-16T06:51:00;98981.84;;;16.29;100.00
50123;BME280;36021;48.670;6.184;2022-10-16T06:53:27;98980.72;;;16.22;100.00
50123;BME280;36021;48.670;6.184;2022-10-16T06:55:53;98975.34;;;16.16;100.00
50123;BME280;36021;48.670;6.184;2022-10-16T06:58:18;98968.66;;;16.09;100.00
50123;BME280;36021;48.670;6.184;2022-10-16T07:00:44;98973.44;;;16.00;100.00
50123;BME280;36021;48.670;6.184;2022-10-16T07:03:10;98986.53;;;15.99;100.00
50123;BME280;36021;48.670;6.184;2022-10-16T07:05:39;98995.50;;;16.05;100.00
50123;BME280;36021;48.670;6.184;2022-10-16T07:08:05;99006.56;;;16.22;100.00
50123;BME280;36021;48.670;6.184;2022-10-16T07:10:34;99008.19;;;16.32;100.00
50123;BME280;36021;48.670;6.184;2022-10-16T07:12:59;99006.03;;;16.37;100.00
50123;BME280;36021;48.670;6.184;2022-10-16T07:15:26;99014.00;;;16.47;100.00
50123;BME280;36021;48.670;6.184;2022-10-16T07:17:51;99022.84;;;16.58;100.00
50123;BME280;36021;48.670;6.184;2022-10-16T07:20:17;99030.00;;;16.67;100.00
50123;BME280;36021;48.670;6.184;2022-10-16T07:22:42;99028.63;;;16.74;100.00
50123;BME280;36021;48.670;6.184;2022-10-16T07:25:08;99036.22;;;16.64;100.00
50123;BME280;36021;48.670;6.184;2022-10-16T07:27:34;99041.34;;;16.45;100.00
50123;BME280;36021;48.670;6.184;2022-10-16T07:29:59;99051.53;;;16.33;100.00
50123;BME280;36021;48.670;6.184;2022-10-16T07:32:25;99056.22;;;16.49;100.00
50123;BME280;36021;48.670;6.184;2022-10-16T07:34:51;99056.53;;;16.56;100.00
50123;BME280;36021;48.670;6.184;2022-10-16T07:37:17;99056.53;;;16.56;100.00
50123;BME280;36021;48.670;6.184;2022-10-16T07:39:42;99070.59;;;16.69;100.00
50123;BME280;36021;48.670;6.184;2022-10-16T07:42:08;99062.03;;;16.74;100.00
50123;BME280;36021;48.670;6.184;2022-10-16T07:44:33;99059.22;;;16.82;100.00
50123;BME280;36021;48.670;6.184;2022-10-16T07:46:59;99061.31;;;16.85;100.00
50123;BME280;36021;48.670;6.184;2022-10-16T07:49:24;99056.25;;;16.87;100.00
50123;BME280;36021;48.670;6.184;2022-10-16T07:51:50;99059.50;;;16.89;100.00
50123;BME280;36021;48.670;6.184;2022-10-16T07:54:15;99059.66;;;16.93;100.00
50123;BME280;36021;48.670;6.184;2022-10-16T07:56:42;99062.06;;;17.03;100.00
50123;BME280;36021;48.670;6.184;2022-10-16T07:59:07;99066.78;;;17.11;100.00
50123;BME280;36021;48.670;6.184;2022-10-16T08:01:33;99062.34;;;17.10;100.00
50123;BME280;36021;48.670;6.184;2022-10-16T08:03:58;99060.25;;;17.07;100.00
50123;BME280;36021;48.670;6.184;2022-10-16T08:06:24;99063.09;;;17.19;100.00
50123;BME280;36021;48.670;6.184;2022-10-16T08:08:50;99059.09;;;17.08;100.00
50123;BME280;36021;48.670;6.184;2022-10-16T08:11:16;99067.84;;;16.89;100.00
50123;BME280;36021;48.670;6.184;2022-10-16T08:13:43;99077.91;;;16.73;100.00
50123;BME280;36021;48.670;6.184;2022-10-16T08:16:08;99072.53;;;17.06;100.00
50123;BME280;36021;48.670;6.184;2022-10-16T08:18:38;99080.38;;;17.33;100.00
50123;BME280;36021;48.670;6.184;2022-10-16T08:21:04;99076.72;;;17.41;100.00
50123;BME280;36021;48.670;6.184;2022-10-16T08:23:33;99080.78;;;17.73;100.00
50123;BME280;36021;48.670;6.184;2022-10-16T08:26:03;99087.50;;;17.72;100.00
50123;BME280;36021;48.670;6.184;2022-10-16T08:28:29;99084.13;;;17.66;100.00
50123;BME280;36021;48.670;6.184;2022-10-16T08:30:55;99091.31;;;17.67;100.00
50123;BME280;36021;48.670;6.184;2022-10-16T08:33:22;99092.88;;;17.77;100.00
50123;BME280;36021;48.670;6.184;2022-10-16T08:35:53;99098.25;;;17.82;100.00
50123;BME280;36021;48.670;6.184;2022-10-16T08:38:19;99109.53;;;17.65;100.00
50123;BME280;36021;48.670;6.184;2022-10-16T08:40:45;99115.53;;;17.76;100.00
50123;BME280;36021;48.670;6.184;2022-10-16T08:54:04;99136.81;;;17.59;100.00
50123;BME280;36021;48.670;6.184;2022-10-16T08:56:30;99141.31;;;17.73;100.00
50123;BME280;36021;48.670;6.184;2022-10-16T08:58:57;99140.53;;;17.84;100.00
50123;BME280;36021;48.670;6.184;2022-10-16T09:01:24;99143.94;;;17.69;100.00
50123;BME280;36021;48.670;6.184;2022-10-16T09:09:30;99155.63;;;17.33;100.00
50123;BME280;36021;48.670;6.184;2022-10-16T09:16:57;99169.19;;;17.35;100.00
50123;BME280;36021;48.670;6.184;2022-10-16T09:19:29;99168.25;;;17.31;100.00
50123;BME280;36021;48.670;6.184;2022-10-16T09:21:59;99152.53;;;17.26;100.00
50123;BME280;36021;48.670;6.184;2022-10-16T09:24:27;99155.13;;;17.31;100.00
50123;BME280;36021;48.670;6.184;2022-10-16T09:26:53;99153.78;;;17.37;100.00
50123;BME280;36021;48.670;6.184;2022-10-16T09:29:19;99157.34;;;17.46;100.00
50123;BME280;36021;48.670;6.184;2022-10-16T09:31:50;99157.63;;;17.53;100.00
50123;BME280;36021;48.670;6.184;2022-10-16T09:34:32;99143.34;;;17.55;100.00
50123;BME280;36021;48.670;6.184;2022-10-16T09:36:59;99146.78;;;17.60;100.00
50123;BME280;36021;48.670;6.184;2022-10-16T09:39:25;99149.28;;;17.53;100.00
50123;BME280;36021;48.670;6.184;2022-10-16T09:41:51;99166.28;;;17.60;100.00
50123;BME280;36021;48.670;6.184;2022-10-16T09:44:18;99162.97;;;17.67;100.00
50123;BME280;36021;48.670;6.184;2022-10-16T09:46:45;99162.63;;;17.68;100.00
50123;BME280;36021;48.670;6.184;2022-10-16T09:49:49;99160.97;;;17.76;100.00
50123;BME280;36021;48.670;6.184;2022-10-16T09:52:04;99161.63;;;17.73;100.00
50123;BME280;36021;48.670;6.184;2022-10-16T09:54:30;99163.66;;;17.85;100.00
50123;BME280;36021;48.670;6.184;2022-10-16T09:57:03;99166.28;;;17.90;100.00
50123;BME280;36021;48.670;6.184;2022-10-16T09:59:31;99158.66;;;17.99;100.00
50123;BME280;36021;48.670;6.184;2022-10-16T10:01:56;99142.59;;;17.96;100.00
50123;BME280;36021;48.670;6.184;2022-10-16T10:04:37;99138.38;;;17.90;100.00
50123;BME280;36021;48.670;6.184;2022-10-16T10:07:04;99143.69;;;17.83;100.00
50123;BME280;36021;48.670;6.184;2022-10-16T10:09:38;99145.22;;;17.72;100.00
50123;BME280;36021;48.670;6.184;2022-10-16T10:12:05;99142.72;;;17.79;100.00
50123;BME280;36021;48.670;6.184;2022-10-16T10:19:30;99149.78;;;17.97;100.00
50123;BME280;36021;48.670;6.184;2022-10-16T10:27:26;99145.34;;;18.37;100.00
50123;BME280;36021;48.670;6.184;2022-10-16T10:35:14;99131.44;;;20.07;100.00
50123;BME280;36021;48.670;6.184;2022-10-16T10:42:50;99149.78;;;19.40;100.00
50123;BME280;36021;48.670;6.184;2022-10-16T10:55:39;99150.69;;;18.63;100.00
50123;BME280;36021;48.670;6.184;2022-10-16T11:05:33;99131.38;;;18.37;100.00
50123;BME280;36021;48.670;6.184;2022-10-16T11:08:49;99133.34;;;18.57;100.00
50123;BME280;36021;48.670;6.184;2022-10-16T11:10:50;99130.94;;;18.68;100.00
50123;BME280;36021;48.670;6.184;2022-10-16T11:16:08;99131.31;;;19.03;100.00
50123;BME280;36021;48.670;6.184;2022-10-16T11:18:55;99141.81;;;19.18;100.00
50123;BME280;36021;48.670;6.184;2022-10-16T11:21:24;99139.72;;;19.39;100.00
50123;BME280;36021;48.670;6.184;2022-10-16T11:23:59;99136.94;;;19.39;100.00
50123;BME280;36021;48.670;6.184;2022-10-16T11:26:28;99130.41;;;19.35;100.00
50123;BME280;36021;48.670;6.184;2022-10-16T11:28:55;99133.09;;;19.44;100.00
50123;BME280;36021;48.670;6.184;2022-10-16T11:31:24;99125.97;;;19.58;100.00
50123;BME280;36021;48.670;6.184;2022-10-16T11:33:57;99123.06;;;19.55;100.00
50123;BME280;36021;48.670;6.184;2022-10-16T11:36:27;99122.25;;;19.54;100.00
50123;BME280;36021;48.670;6.184;2022-10-16T11:39:01;99117.34;;;19.63;100.00
50123;BME280;36021;48.670;6.184;2022-10-16T11:41:51;99109.88;;;19.80;100.00
50123;BME280;36021;48.670;6.184;2022-10-16T11:47:13;99102.59;;;20.90;100.00
50123;BME280;36021;48.670;6.184;2022-10-16T11:49:43;99074.28;;;23.48;100.00
50123;BME280;36021;48.670;6.184;2022-10-16T11:55:28;99049.31;;;27.10;100.00
50123;BME280;36021;48.670;6.184;2022-10-16T11:57:54;99047.28;;;26.82;100.00
50123;BME280;36021;48.670;6.184;2022-10-16T12:00:24;99044.81;;;27.62;100.00
50123;BME280;36021;48.670;6.184;2022-10-16T12:02:58;99052.13;;;27.49;100.00
50123;BME280;36021;48.670;6.184;2022-10-16T12:08:13;99045.66;;;27.17;100.00
50123;BME280;36021;48.670;6.184;2022-10-16T12:10:40;99032.31;;;29.57;100.00
50123;BME280;36021;48.670;6.184;2022-10-16T12:15:51;99038.81;;;29.94;100.00
50123;BME280;36021;48.670;6.184;2022-10-16T12:18:23;99034.19;;;29.70;100.00
50123;BME280;36021;48.670;6.184;2022-10-16T12:20:58;99030.13;;;29.34;100.00
50123;BME280;36021;48.670;6.184;2022-10-16T12:23:30;99029.88;;;30.57;100.00
50123;BME280;36021;48.670;6.184;2022-10-16T12:25:57;99038.09;;;29.46;100.00
50123;BME280;36021;48.670;6.184;2022-10-16T12:28:27;99035.88;;;31.16;100.00
50123;BME280;36021;48.670;6.184;2022-10-16T12:30:53;99029.47;;;30.58;100.00
50123;BME280;36021;48.670;6.184;2022-10-16T12:33:24;99031.94;;;30.56;100.00
50123;BME280;36021;48.670;6.184;2022-10-16T12:35:50;99031.34;;;30.95;100.00
50123;BME280;36021;48.670;6.184;2022-10-16T12:38:26;99021.03;;;30.51;100.00
50123;BME280;36021;48.670;6.184;2022-10-16T12:41:06;99027.56;;;30.48;100.00
50123;BME280;36021;48.670;6.184;2022-10-16T12:48:34;99019.13;;;28.22;100.00
50123;BME280;36021;48.670;6.184;2022-10-16T12:51:09;99023.63;;;28.16;100.00
50123;BME280;36021;48.670;6.184;2022-10-16T12:53:35;99025.28;;;28.10;100.00
50123;BME280;36021;48.670;6.184;2022-10-16T13:08:57;99011.31;;;27.15;100.00
50123;BME280;36021;48.670;6.184;2022-10-16T13:14:17;99016.56;;;26.88;100.00
50123;BME280;36021;48.670;6.184;2022-10-16T13:19:38;99012.50;;;27.03;100.00
50123;BME280;36021;48.670;6.184;2022-10-16T13:27:21;99013.66;;;26.38;100.00
50123;BME280;36021;48.670;6.184;2022-10-16T13:29:59;99019.81;;;27.08;100.00
50123;BME280;36021;48.670;6.184;2022-10-16T13:32:26;99020.59;;;26.76;100.00
50123;BME280;36021;48.670;6.184;2022-10-16T13:34:51;99007.28;;;27.02;100.00
50123;BME280;36021;48.670;6.184;2022-10-16T13:37:20;99004.59;;;28.13;100.00
50123;BME280;36021;48.670;6.184;2022-10-16T13:39:45;99005.13;;;27.80;100.00
50123;BME280;36021;48.670;6.184;2022-10-16T13:42:13;99004.41;;;26.70;100.00
50123;BME280;36021;48.670;6.184;2022-10-16T13:44:43;98998.72;;;27.37;100.00
50123;BME280;36021;48.670;6.184;2022-10-16T13:47:14;99003.59;;;27.47;100.00
50123;BME280;36021;48.670;6.184;2022-10-16T13:49:40;98999.47;;;27.69;100.00
50123;BME280;36021;48.670;6.184;2022-10-16T13:52:15;99004.41;;;27.51;100.00
50123;BME280;36021;48.670;6.184;2022-10-16T13:54:42;99001.09;;;26.29;100.00
50123;BME280;36021;48.670;6.184;2022-10-16T13:57:11;99003.63;;;27.22;100.00
50123;BME280;36021;48.670;6.184;2022-10-16T13:59:38;99021.84;;;26.82;100.00
50123;BME280;36021;48.670;6.184;2022-10-16T14:02:08;99008.44;;;27.36;100.00
50123;BME280;36021;48.670;6.184;2022-10-16T14:04:39;98998.28;;;27.63;100.00
50123;BME280;36021;48.670;6.184;2022-10-16T14:07:04;99004.31;;;27.72;100.00
50123;BME280;36021;48.670;6.184;2022-10-16T14:09:30;99002.94;;;28.19;100.00
50123;BME280;36021;48.670;6.184;2022-10-16T14:11:57;99001.13;;;27.67;100.00
50123;BME280;36021;48.670;6.184;2022-10-16T14:14:23;99004.00;;;26.71;100.00
50123;BME280;36021;48.670;6.184;2022-10-16T14:16:49;99003.63;;;26.87;100.00
50123;BME280;36021;48.670;6.184;2022-10-16T14:19:20;99004.81;;;26.75;100.00
50123;BME280;36021;48.670;6.184;2022-10-16T14:21:49;98991.44;;;26.51;100.00
50123;BME280;36021;48.670;6.184;2022-10-16T14:26:56;98994.69;;;26.71;100.00
50123;BME280;36021;48.670;6.184;2022-10-16T14:29:23;98987.47;;;27.09;100.00
50123;BME280;36021;48.670;6.184;2022-10-16T14:32:02;98991.50;;;27.22;100.00
50123;BME280;36021;48.670;6.184;2022-10-16T14:34:29;98984.88;;;26.08;100.00
50123;BME280;36021;48.670;6.184;2022-10-16T14:36:57;98980.00;;;25.95;100.00
50123;BME280;36021;48.670;6.184;2022-10-16T14:39:23;98989.56;;;25.69;100.00
50123;BME280;36021;48.670;6.184;2022-10-16T14:41:51;98977.59;;;25.24;100.00
50123;BME280;36021;48.670;6.184;2022-10-16T14:44:17;98985.50;;;25.63;100.00
50123;BME280;36021;48.670;6.184;2022-10-16T14:46:43;98973.81;;;24.99;100.00